Аэропорт: Гумрак. Волгоград

ICAO: URWW

METAR:
2021-10-23 01:00:00
URWW 230100Z 25003MPS CAVOK 08/07 Q1016 R24/010070 TEMPO 1000 BR BKN004
METAR:
2021-10-22 22:59:00
TAF URWW 222259Z 2300/2309 22006G12MPS 6000 BKN016 TEMPO 2300/2306 25005G11MPS TEMPO 2306/2308 25008G14MPS